ULAA

Talagi Airport

Archangelsk, Russian Federation
TAF ULAA 210500Z 2106/2206 09003G08MPS 9999 SCT011 TEMPO 2106/2109 02003G10MPS 3100 -RA BKN011 PROB40 TEMPO 2107/2109 -TSRA BKN011CB FM210900 04004G10MPS 6000 -RA BKN011 TEMPO 2109/2118 36005G16MPS 1000 TSRA BKN003 BKN011CB TEMPO 2118/2121 14005G11MPS 3100 -SHRA BKN011CB
Issued Valid From Valid To
Aug-21 @ 05:00 UTC
(13 hours ago)
Aug-21 @ 06:00 UTC
(12 hours ago)
Aug-22 @ 06:00 UTC
(in 12 hours)
Expired Click to View Aug-21 @ 06:00 to Aug-21 @ 09:00
TAF ULAA 210500Z 2106/2206 09003G08MPS 9999 SCT011
Wind Visibility Clouds
90° at 6 knots
 Gusting to 16 knots
10,000+ meters
  • Scattered at 1,100' AGL
Expired Click to View Aug-21 @ 06:00 to Aug-21 @ 09:00
TEMPO 2106/2109 02003G10MPS 3100 -RA BKN011
Wind Visibility Clouds Conditions
20° at 6 knots
 Gusting to 19 knots
3,106 meters
  • Broken at 1,100' AGL
  • Light Rain
Expired Click to View Aug-21 @ 07:00 to Aug-21 @ 09:00
PROB40 TEMPO 2107/2109 -TSRA BKN011CB
Clouds Conditions
  • Broken at 1,100' AGL
  • Light Thunderstorm
  • Light Rain
Temporary Aug-21 @ 09:00 to Aug-21 @ 18:00
TEMPO 2109/2118 36005G16MPS 1000 TSRA BKN003 BKN011CB
Wind Visibility Clouds Conditions
360° at 10 knots
 Gusting to 31 knots
998 meters
  • Broken at 300' AGL
  • Broken at 1,100' AGL
  • Thunderstorm
  • Rain
From Aug-21 @ 09:00 to Aug-22 @ 06:00
FM210900 04004G10MPS 6000 -RA BKN011
Wind Visibility Clouds Conditions
40° at 8 knots
 Gusting to 19 knots
6,003 meters
  • Broken at 1,100' AGL
  • Light Rain
Temporary Aug-21 @ 18:00 to Aug-21 @ 21:00
TEMPO 2118/2121 14005G11MPS 3100 -SHRA BKN011CB
Wind Visibility Clouds Conditions
140° at 10 knots
 Gusting to 21 knots
3,106 meters
  • Broken at 1,100' AGL
  • Light Rain
TAF ULAA 210500Z 2106/2206 09003G08MPS 9999 SCT011 TEMPO 2106/2109 02003G10MPS 3100 -RA BKN011 PROB40 TEMPO 2107/2109 -TSRA BKN011CB FM210900 04004G10MPS 6000 -RA BKN011 TEMPO 2109/2118 36005G16MPS 1000 TSRA BKN003 BKN011CB TEMPO 2118/2121 14005G11MPS 3100 -SHRA BKN011CB
Issued Aug-21 @ 05:00 UTC
(13 hours ago)
Valid From Aug-21 @ 06:00 UTC
(12 hours ago)
Valid To Aug-22 @ 06:00 UTC
(in 12 hours)
Aug-21 @ 06:00 - Aug-21 @ 09:00
Wind Visibility
90° at 6 knots
 Gusting to 16 knots
10,000+ meters
Clouds
  • Scattered at 1,100' AGL
Aug-21 @ 06:00 - Aug-21 @ 09:00
Wind Visibility
20° at 6 knots
 Gusting to 19 knots
3,106 meters
Clouds
  • Broken at 1,100' AGL
Conditions
  • Light Rain
Aug-21 @ 07:00 - Aug-21 @ 09:00
Clouds
  • Broken at 1,100' AGL
Conditions
  • Light Thunderstorm
  • Light Rain
Temporary Aug-21 @ 09:00 - Aug-21 @ 18:00
Wind Visibility
360° at 10 knots
 Gusting to 31 knots
998 meters
Clouds
  • Broken at 300' AGL
  • Broken at 1,100' AGL
Conditions
  • Thunderstorm
  • Rain
From Aug-21 @ 09:00 - Aug-22 @ 06:00
Wind Visibility
40° at 8 knots
 Gusting to 19 knots
6,003 meters
Clouds
  • Broken at 1,100' AGL
Conditions
  • Light Rain
Temporary Aug-21 @ 18:00 - Aug-21 @ 21:00
Wind Visibility
140° at 10 knots
 Gusting to 21 knots
3,106 meters
Clouds
  • Broken at 1,100' AGL
Conditions
  • Light Rain